createdAt,value
2022-09-28T00:02:13.449Z,97150.88
2022-09-28T00:04:40.370Z,97150.03
2022-09-28T00:07:07.375Z,97147.00
2022-09-28T00:09:34.200Z,97151.19
2022-09-28T00:12:01.258Z,97145.63
2022-09-28T00:14:28.327Z,97142.09
2022-09-28T00:16:55.343Z,97142.91
2022-09-28T00:19:22.142Z,97142.59
2022-09-28T00:21:49.170Z,97141.91
2022-09-28T00:24:16.099Z,97141.41
2022-09-28T00:26:48.441Z,97138.56
2022-09-28T00:29:20.049Z,97129.09
2022-09-28T00:31:47.242Z,97131.63
2022-09-28T00:34:14.178Z,97132.13
2022-09-28T00:36:43.730Z,97125.38
2022-09-28T00:39:10.591Z,97127.25
2022-09-28T00:41:37.526Z,97124.38
2022-09-28T00:44:22.762Z,97130.44
2022-09-28T00:46:53.774Z,97124.19
2022-09-28T00:49:33.382Z,97124.88
2022-09-28T00:52:00.233Z,97126.91
2022-09-28T00:54:27.260Z,97137.69
2022-09-28T00:56:54.062Z,97132.97
2022-09-28T00:59:20.804Z,97130.44
2022-09-28T01:01:48.616Z,97139.72
2022-09-28T01:04:15.413Z,97127.91
2022-09-28T01:06:42.166Z,97129.75
2022-09-28T01:09:09.158Z,97129.75
2022-09-28T01:11:36.997Z,97141.06
2022-09-28T01:14:04.369Z,97137.34
2022-09-28T01:16:56.337Z,97144.91
2022-09-28T01:19:37.862Z,97147.78
2022-09-28T01:22:27.753Z,97144.38
2022-09-28T01:25:07.939Z,97139.84
2022-09-28T01:27:59.781Z,97138.66
2022-09-28T01:30:26.561Z,97138.97
2022-09-28T01:33:19.352Z,97133.22
2022-09-28T01:36:00.357Z,97124.78
2022-09-28T01:38:30.903Z,97126.47
2022-09-28T01:40:58.575Z,97120.88
2022-09-28T01:43:27.097Z,97116.97
2022-09-28T01:45:54.077Z,97127.16
2022-09-28T01:48:27.226Z,97126.44
2022-09-28T01:50:55.226Z,97124.25
2022-09-28T01:53:40.389Z,97119.66
2022-09-28T01:56:10.919Z,97126.72
2022-09-28T01:58:45.521Z,97116.59
2022-09-28T02:01:16.625Z,97126.41
2022-09-28T02:03:48.864Z,97120.00
2022-09-28T02:06:18.456Z,97128.25
2022-09-28T02:08:57.146Z,97125.75
2022-09-28T02:11:23.913Z,97134.16
2022-09-28T02:13:58.761Z,97125.25
2022-09-28T02:16:49.101Z,97138.38
2022-09-28T02:19:18.181Z,97137.16
2022-09-28T02:22:04.943Z,97130.22
2022-09-28T02:24:39.791Z,97132.00
2022-09-28T02:27:20.784Z,97132.53
2022-09-28T02:29:48.823Z,97128.97
2022-09-28T02:32:16.020Z,97130.19
2022-09-28T02:34:42.803Z,97127.34
2022-09-28T02:37:09.828Z,97129.13
2022-09-28T02:39:36.605Z,97128.09
2022-09-28T02:42:12.007Z,97135.19
2022-09-28T02:45:10.193Z,97131.66
2022-09-28T02:48:04.882Z,97138.25
2022-09-28T02:50:51.788Z,97135.50
2022-09-28T02:53:37.235Z,97131.66
2022-09-28T02:56:26.242Z,97133.31
2022-09-28T02:59:31.044Z,97135.81
2022-09-28T03:02:16.943Z,97140.69
2022-09-28T03:05:17.851Z,97144.88
2022-09-28T03:08:03.950Z,97148.09
2022-09-28T03:10:35.530Z,97146.91
2022-09-28T03:13:02.520Z,97146.56
2022-09-28T03:15:30.833Z,97145.03
2022-09-28T03:17:58.004Z,97138.25
2022-09-28T03:20:25.960Z,97142.50
2022-09-28T03:23:19.711Z,97140.44
2022-09-28T03:25:39.850Z,97138.78
2022-09-28T03:28:06.632Z,97138.56
2022-09-28T03:30:33.538Z,97143.50
2022-09-28T03:33:00.850Z,97134.56
2022-09-28T03:35:27.638Z,97134.06
2022-09-28T03:37:56.082Z,97130.13
2022-09-28T03:40:23.289Z,97134.53
2022-09-28T03:42:50.098Z,97120.72
2022-09-28T03:45:16.974Z,97116.50
2022-09-28T03:47:47.178Z,97114.97
2022-09-28T03:50:14.304Z,97115.66
2022-09-28T03:52:41.294Z,97129.59
2022-09-28T03:55:08.835Z,97130.44
2022-09-28T03:57:35.566Z,97142.56
2022-09-28T04:00:03.666Z,97125.75
2022-09-28T04:02:30.903Z,97133.53
2022-09-28T04:04:57.782Z,97132.44
2022-09-28T04:07:26.922Z,97122.75
2022-09-28T04:09:57.336Z,97128.91
2022-09-28T04:12:24.150Z,97122.34
2022-09-28T04:14:51.012Z,97133.78
2022-09-28T04:17:18.018Z,97130.03
2022-09-28T04:19:44.859Z,97134.94
2022-09-28T04:22:11.658Z,97127.88
2022-09-28T04:24:39.190Z,97128.34
2022-09-28T04:27:24.546Z,97134.56
2022-09-28T04:29:51.599Z,97134.78
2022-09-28T04:32:18.368Z,97143.16
2022-09-28T04:34:45.214Z,97135.09
2022-09-28T04:37:12.259Z,97136.78
2022-09-28T04:39:42.264Z,97130.88
2022-09-28T04:42:12.101Z,97126.97
2022-09-28T04:44:39.158Z,97126.00
2022-09-28T04:47:05.930Z,97129.19
2022-09-28T04:49:35.338Z,97124.41
2022-09-28T04:52:02.454Z,97120.38
2022-09-28T04:54:29.297Z,97133.47
2022-09-28T04:56:56.114Z,97131.63
2022-09-28T04:59:23.423Z,97128.41
2022-09-28T05:01:50.229Z,97131.09
2022-09-28T05:04:17.407Z,97132.09
2022-09-28T05:06:45.283Z,97141.13
2022-09-28T05:09:12.024Z,97134.19
2022-09-28T05:11:38.784Z,97137.94
2022-09-28T05:14:06.001Z,97146.44
2022-09-28T05:16:33.948Z,97139.34
2022-09-28T05:19:00.904Z,97139.50
2022-09-28T05:21:29.382Z,97149.28
2022-09-28T05:23:58.255Z,97152.66
2022-09-28T05:26:25.091Z,97158.03
2022-09-28T05:28:52.140Z,97167.78
2022-09-28T05:31:18.976Z,97175.03
2022-09-28T05:33:45.832Z,97169.97
2022-09-28T05:36:12.901Z,97167.13
2022-09-28T05:38:39.753Z,97168.13
2022-09-28T05:41:07.046Z,97162.09
2022-09-28T05:43:34.237Z,97160.25
2022-09-28T05:46:01.115Z,97157.72
2022-09-28T05:48:28.444Z,97161.41
2022-09-28T05:50:55.600Z,97154.16
2022-09-28T05:53:22.549Z,97155.72
2022-09-28T05:55:49.420Z,97149.16
2022-09-28T05:58:16.568Z,97148.16
2022-09-28T06:00:43.509Z,97150.53
2022-09-28T06:03:13.913Z,97146.50
2022-09-28T06:05:41.090Z,97145.97
2022-09-28T06:08:10.306Z,97148.34
2022-09-28T06:10:37.238Z,97139.28
2022-09-28T06:13:04.653Z,97141.31
2022-09-28T06:15:34.407Z,97142.19
2022-09-28T06:18:06.251Z,97153.81
2022-09-28T06:20:35.951Z,97151.47
2022-09-28T06:23:02.766Z,97150.63
2022-09-28T06:25:29.748Z,97148.47
2022-09-28T06:28:04.522Z,97147.97
2022-09-28T06:30:33.059Z,97144.41
2022-09-28T06:33:00.866Z,97144.78
2022-09-28T06:35:30.338Z,97149.19
2022-09-28T06:37:58.249Z,97155.56
2022-09-28T06:40:25.514Z,97149.84
2022-09-28T06:43:00.093Z,97151.41
2022-09-28T06:45:28.136Z,97153.59
2022-09-28T06:47:59.030Z,97158.81
2022-09-28T06:50:27.184Z,97151.59
2022-09-28T06:52:54.759Z,97150.25
2022-09-28T06:55:21.887Z,97149.41
2022-09-28T06:57:55.628Z,97144.38
2022-09-28T07:00:22.714Z,97135.09
2022-09-28T07:02:49.502Z,97140.03
2022-09-28T07:05:16.415Z,97140.50
2022-09-28T07:07:44.769Z,97134.78
2022-09-28T07:10:11.910Z,97130.78
2022-09-28T07:12:39.880Z,97139.53
2022-09-28T07:15:07.458Z,97139.22
2022-09-28T07:17:50.349Z,97145.97
2022-09-28T07:20:21.810Z,97143.94
2022-09-28T07:22:53.406Z,97136.88
2022-09-28T07:25:20.571Z,97142.09
2022-09-28T07:27:47.650Z,97135.53
2022-09-28T07:30:14.759Z,97142.63
2022-09-28T07:32:42.037Z,97135.88
2022-09-28T07:35:09.716Z,97132.72
2022-09-28T07:37:36.783Z,97132.56
2022-09-28T07:40:25.455Z,97131.41
2022-09-28T07:42:52.775Z,97136.28
2022-09-28T07:45:25.665Z,97128.53
2022-09-28T07:47:58.457Z,97129.38
2022-09-28T07:50:25.639Z,97123.31
2022-09-28T07:52:52.385Z,97122.81
2022-09-28T07:55:19.184Z,97121.66
2022-09-28T07:57:48.368Z,97114.22
2022-09-28T08:00:15.746Z,97119.78
2022-09-28T08:02:42.742Z,97114.91
2022-09-28T08:05:10.119Z,97118.78
2022-09-28T08:07:38.333Z,97115.91
2022-09-28T08:10:05.654Z,97106.31
2022-09-28T08:12:33.421Z,97113.88
2022-09-28T08:15:00.230Z,97112.88
2022-09-28T08:17:27.132Z,97112.38
2022-09-28T08:20:12.601Z,97122.47
2022-09-28T08:22:39.932Z,97121.81
2022-09-28T08:25:07.555Z,97113.69
2022-09-28T08:27:34.375Z,97118.75
2022-09-28T08:30:01.162Z,97110.81
2022-09-28T08:32:29.794Z,97116.88
2022-09-28T08:34:56.587Z,97121.44
2022-09-28T08:37:23.342Z,97119.25
2022-09-28T08:39:50.437Z,97118.84
2022-09-28T08:42:30.743Z,97134.56
2022-09-28T08:45:00.348Z,97125.06
2022-09-28T08:47:53.068Z,97123.69
2022-09-28T08:50:24.263Z,97127.22
2022-09-28T08:52:54.311Z,97122.69
2022-09-28T08:55:39.560Z,97117.19
2022-09-28T08:58:14.440Z,97116.84
2022-09-28T09:00:49.341Z,97098.34
2022-09-28T09:03:34.438Z,97112.88
2022-09-28T09:06:18.499Z,97105.06
2022-09-28T09:09:11.206Z,97100.44
2022-09-28T09:12:03.483Z,97102.44
2022-09-28T09:14:59.632Z,97096.28
2022-09-28T09:17:52.026Z,97112.31
2022-09-28T09:20:33.932Z,97116.41
2022-09-28T09:23:01.869Z,97114.19
2022-09-28T09:25:53.213Z,97109.53
2022-09-28T09:28:29.586Z,97114.75
2022-09-28T09:31:02.674Z,97113.47
2022-09-28T09:34:00.359Z,97099.84
2022-09-28T09:36:33.398Z,97096.91
2022-09-28T09:39:26.759Z,97100.56
2022-09-28T09:42:12.385Z,97094.88
2022-09-28T09:44:42.588Z,97103.19
2022-09-28T09:47:15.043Z,97107.06
2022-09-28T09:50:05.496Z,97093.53
2022-09-28T09:52:54.954Z,97080.88
2022-09-28T09:55:30.068Z,97080.97
2022-09-28T09:58:33.171Z,97081.53
2022-09-28T10:01:07.197Z,97081.00
2022-09-28T10:03:35.021Z,97073.31
2022-09-28T10:06:05.146Z,97071.19
2022-09-28T10:08:34.746Z,97072.09
2022-09-28T10:11:07.623Z,97070.09
2022-09-28T10:13:35.096Z,97065.63
2022-09-28T10:16:02.109Z,97054.84
2022-09-28T10:18:28.980Z,97053.22
2022-09-28T10:20:56.105Z,97049.47
2022-09-28T10:23:28.399Z,97049.38
2022-09-28T10:25:59.497Z,97043.81
2022-09-28T10:28:50.817Z,97053.44
2022-09-28T10:31:35.992Z,97043.88
2022-09-28T10:34:04.528Z,97033.47
2022-09-28T10:36:38.329Z,97045.44
2022-09-28T10:39:06.100Z,97040.44
2022-09-28T10:41:32.940Z,97040.06
2022-09-28T10:44:08.892Z,97038.09
2022-09-28T10:46:36.281Z,97036.25
2022-09-28T10:49:05.000Z,97028.28
2022-09-28T10:51:51.824Z,97042.91
2022-09-28T10:54:19.938Z,97028.63
2022-09-28T10:56:47.204Z,97025.47
2022-09-28T10:59:43.462Z,97016.50
2022-09-28T11:02:13.310Z,97013.00
2022-09-28T11:04:42.015Z,97011.16
2022-09-28T11:07:19.333Z,97004.47
2022-09-28T11:09:49.525Z,97004.94
2022-09-28T11:12:38.328Z,97010.00
2022-09-28T11:15:06.548Z,97009.09
2022-09-28T11:17:38.571Z,97014.81
2022-09-28T11:20:27.449Z,97008.38
2022-09-28T11:22:56.804Z,97007.38
2022-09-28T11:25:28.215Z,97001.53
2022-09-28T11:28:02.099Z,97000.94
2022-09-28T11:30:45.994Z,97000.34
2022-09-28T11:33:37.219Z,97000.75
2022-09-28T11:36:13.217Z,96988.88
2022-09-28T11:38:55.297Z,96981.09
2022-09-28T11:41:28.557Z,96978.81
2022-09-28T11:44:01.667Z,96981.38
2022-09-28T11:47:06.217Z,96974.47
2022-09-28T11:49:40.131Z,96981.38
2022-09-28T11:52:12.480Z,96972.84
2022-09-28T11:54:50.020Z,96961.09
2022-09-28T11:57:20.840Z,96967.13
2022-09-28T11:59:52.080Z,96961.09
2022-09-28T12:02:27.795Z,96957.56
2022-09-28T12:05:01.063Z,96960.88
2022-09-28T12:07:44.721Z,96959.44
2022-09-28T12:10:50.897Z,96967.81
2022-09-28T12:13:19.559Z,96959.25
2022-09-28T12:16:20.050Z,96970.19
2022-09-28T12:21:37.631Z,96964.16
2022-09-28T12:24:29.434Z,96949.69
2022-09-28T12:27:12.953Z,96945.75
2022-09-28T12:30:00.291Z,96947.41
2022-09-28T12:32:36.229Z,96940.91
2022-09-28T12:35:03.696Z,96940.28
2022-09-28T12:37:33.583Z,96945.53
2022-09-28T12:40:20.645Z,96933.59
2022-09-28T12:43:17.657Z,96938.41
2022-09-28T12:46:15.569Z,96943.00
2022-09-28T12:49:43.635Z,96935.91
2022-09-28T12:51:49.607Z,96928.34
2022-09-28T12:54:34.493Z,96931.75
2022-09-28T12:57:29.985Z,96931.75
2022-09-28T13:00:03.089Z,96933.59
2022-09-28T13:03:07.069Z,96934.25
2022-09-28T13:05:59.042Z,96929.22
2022-09-28T13:08:34.738Z,96922.09
2022-09-28T13:11:18.233Z,96921.25
2022-09-28T13:13:58.160Z,96918.72
2022-09-28T13:16:31.445Z,96924.19
2022-09-28T13:19:20.628Z,96921.25
2022-09-28T13:22:15.168Z,96917.91
2022-09-28T13:24:44.272Z,96930.03
2022-09-28T13:27:17.424Z,96925.81
2022-09-28T13:29:44.394Z,96926.25
2022-09-28T13:32:12.655Z,96926.25
2022-09-28T13:34:39.986Z,96923.94
2022-09-28T13:37:21.947Z,96914.09
2022-09-28T13:39:52.867Z,96914.91
2022-09-28T13:42:22.766Z,96924.97
2022-09-28T13:44:59.472Z,96915.34
2022-09-28T13:47:31.896Z,96901.03
2022-09-28T13:50:25.715Z,96899.59
2022-09-28T13:53:02.358Z,96901.69
2022-09-28T13:55:32.936Z,96906.47
2022-09-28T13:58:15.080Z,96893.91
2022-09-28T14:00:56.728Z,96883.84
2022-09-28T14:03:46.146Z,96880.50
2022-09-28T14:06:30.359Z,96882.78
2022-09-28T14:09:09.961Z,96881.09
2022-09-28T14:11:36.913Z,96887.56
2022-09-28T14:14:13.948Z,96885.88
2022-09-28T14:16:41.465Z,96891.31
2022-09-28T14:19:44.147Z,96887.56
2022-09-28T14:22:17.646Z,96884.38
2022-09-28T14:24:54.801Z,96885.63
2022-09-28T14:27:37.850Z,96858.63
2022-09-28T14:30:13.860Z,96863.22
2022-09-28T14:32:42.902Z,96864.06
2022-09-28T14:35:39.304Z,96866.34
2022-09-28T14:38:38.145Z,96873.22
2022-09-28T14:41:14.956Z,96870.69
2022-09-28T14:43:44.867Z,96871.50
2022-09-28T14:46:12.351Z,96873.81
2022-09-28T14:48:58.228Z,96873.38
2022-09-28T14:51:26.308Z,96870.63
2022-09-28T14:53:54.697Z,96876.50
2022-09-28T14:56:21.876Z,96878.06
2022-09-28T14:58:53.416Z,96880.19
2022-09-28T15:01:20.941Z,96891.03
2022-09-28T15:03:48.868Z,96883.91
2022-09-28T15:06:16.270Z,96884.69
2022-09-28T15:08:43.024Z,96884.91
2022-09-28T15:11:18.264Z,96877.84
2022-09-28T15:13:45.432Z,96880.91
2022-09-28T15:16:18.911Z,96880.69
2022-09-28T15:19:18.773Z,96880.47
2022-09-28T15:21:47.772Z,96867.94
2022-09-28T15:24:33.964Z,96877.19
2022-09-28T15:27:03.209Z,96889.22
2022-09-28T15:29:33.423Z,96893.00
2022-09-28T15:32:00.741Z,96896.09
2022-09-28T15:34:52.001Z,96894.63
2022-09-28T15:37:27.540Z,96900.72
2022-09-28T15:39:54.544Z,96894.63
2022-09-28T15:42:22.575Z,96898.78
2022-09-28T15:45:23.006Z,96900.47
2022-09-28T15:47:50.116Z,96898.78
2022-09-28T15:50:30.492Z,96892.91
2022-09-28T15:53:00.872Z,96903.13
2022-09-28T15:55:32.487Z,96901.00
2022-09-28T15:58:27.466Z,96889.69
2022-09-28T16:01:18.414Z,96890.34
2022-09-28T16:03:45.519Z,96895.13
2022-09-28T16:06:12.326Z,96891.50
2022-09-28T16:08:42.045Z,96896.75
2022-09-28T16:11:24.239Z,96891.91
2022-09-28T16:14:02.576Z,96888.53
2022-09-28T16:16:31.080Z,96883.09
2022-09-28T16:19:00.776Z,96872.66
2022-09-28T16:21:46.716Z,96882.16
2022-09-28T16:24:33.533Z,96893.28
2022-09-28T16:27:04.800Z,96906.28
2022-09-28T16:29:42.052Z,96904.78
2022-09-28T16:32:33.620Z,96920.63
2022-09-28T16:35:13.004Z,96919.53
2022-09-28T16:37:43.322Z,96925.34
2022-09-28T16:40:10.833Z,96926.38
2022-09-28T16:42:44.402Z,96934.53
2022-09-28T16:45:21.678Z,96934.31
2022-09-28T16:47:52.984Z,96929.50
2022-09-28T16:50:21.097Z,96933.63
2022-09-28T16:53:08.625Z,96934.69
2022-09-28T16:55:40.635Z,96947.84
2022-09-28T16:58:08.193Z,96949.66
2022-09-28T17:00:35.061Z,96948.94
2022-09-28T17:03:02.304Z,96949.50
2022-09-28T17:05:29.503Z,96955.19
2022-09-28T17:08:03.438Z,96948.13
2022-09-28T17:10:56.157Z,96946.41
2022-09-28T17:13:33.286Z,96957.28
2022-09-28T17:16:02.894Z,96956.25
2022-09-28T17:18:31.933Z,96958.66
2022-09-28T17:21:01.334Z,96970.19
2022-09-28T17:23:28.384Z,96973.47
2022-09-28T17:25:55.689Z,96979.56
2022-09-28T17:28:24.304Z,96986.94
2022-09-28T17:30:51.486Z,96985.06
2022-09-28T17:33:18.447Z,96995.66
2022-09-28T17:35:45.292Z,96989.56
2022-09-28T17:38:13.194Z,96983.88
2022-09-28T17:40:40.281Z,96986.13
2022-09-28T17:43:07.298Z,96992.09
2022-09-28T17:45:39.074Z,96996.28
2022-09-28T17:48:16.219Z,96997.00
2022-09-28T17:50:46.423Z,96999.53
2022-09-28T17:53:13.905Z,96989.00
2022-09-28T17:55:40.910Z,96997.16
2022-09-28T17:58:18.603Z,96998.34
2022-09-28T18:00:46.043Z,96999.41
2022-09-28T18:03:21.291Z,97007.28
2022-09-28T18:06:10.972Z,97013.72
2022-09-28T18:08:37.998Z,97010.53
2022-09-28T18:11:04.993Z,97018.41
2022-09-28T18:13:31.795Z,97021.69
2022-09-28T18:15:58.943Z,97022.25
2022-09-28T18:18:25.877Z,97018.69
2022-09-28T18:20:52.793Z,97026.00
2022-09-28T18:23:19.954Z,97036.84
2022-09-28T18:25:47.141Z,97036.16
2022-09-28T18:28:13.963Z,97034.03
2022-09-28T18:30:42.797Z,97033.53
2022-09-28T18:33:09.974Z,97029.16
2022-09-28T18:35:36.805Z,97029.34
2022-09-28T18:38:05.353Z,97032.91
2022-09-28T18:40:35.352Z,97040.03
2022-09-28T18:43:02.914Z,97036.06
2022-09-28T18:45:30.703Z,97043.00
2022-09-28T18:47:57.772Z,97035.63
2022-09-28T18:50:24.533Z,97040.38
2022-09-28T18:52:51.626Z,97054.31
2022-09-28T18:55:19.072Z,97053.28
2022-09-28T18:57:46.779Z,97047.50
2022-09-28T19:00:15.210Z,97054.97
2022-09-28T19:02:42.270Z,97047.41
2022-09-28T19:05:09.667Z,97049.72
2022-09-28T19:07:36.948Z,97051.13
2022-09-28T19:10:04.169Z,97052.72
2022-09-28T19:12:32.125Z,97055.44
2022-09-28T19:14:59.777Z,97057.66
2022-09-28T19:17:26.684Z,97058.88
2022-09-28T19:19:53.518Z,97065.78
2022-09-28T19:22:20.588Z,97069.34
2022-09-28T19:24:47.398Z,97066.00
2022-09-28T19:27:14.260Z,97074.50
2022-09-28T19:29:41.280Z,97078.69
2022-09-28T19:32:08.078Z,97097.84
2022-09-28T19:34:34.957Z,97106.16
2022-09-28T19:37:03.901Z,97104.66
2022-09-28T19:39:31.570Z,97097.72
2022-09-28T19:41:59.799Z,97101.84
2022-09-28T19:44:28.188Z,97104.56
2022-09-28T19:47:00.381Z,97105.75
2022-09-28T19:49:27.646Z,97095.97
2022-09-28T19:52:14.930Z,97096.31
2022-09-28T19:54:55.307Z,97112.59
2022-09-28T19:57:24.724Z,97113.28
2022-09-28T19:59:53.828Z,97124.31
2022-09-28T20:02:22.713Z,97132.44
2022-09-28T20:04:49.526Z,97145.34
2022-09-28T20:07:16.609Z,97152.63
2022-09-28T20:09:43.468Z,97165.31
2022-09-28T20:12:10.227Z,97162.13
2022-09-28T20:14:40.145Z,97158.41
2022-09-28T20:17:07.557Z,97148.41
2022-09-28T20:19:35.074Z,97144.19
2022-09-28T20:22:03.103Z,97158.75
2022-09-28T20:24:31.376Z,97148.75
2022-09-28T20:26:58.572Z,97147.75
2022-09-28T20:29:25.673Z,97162.31
2022-09-28T20:31:52.566Z,97165.19
2022-09-28T20:34:19.386Z,97141.84
2022-09-28T20:36:46.400Z,97141.19
2022-09-28T20:39:13.450Z,97147.63
2022-09-28T20:41:40.340Z,97155.94
2022-09-28T20:44:07.612Z,97162.38
2022-09-28T20:46:36.347Z,97170.69
2022-09-28T20:49:04.450Z,97179.00
2022-09-28T20:51:31.592Z,97181.69
2022-09-28T20:53:58.861Z,97197.97
2022-09-28T20:56:37.705Z,97198.78
2022-09-28T20:59:08.351Z,97194.34
2022-09-28T21:01:35.292Z,97188.28
2022-09-28T21:04:03.631Z,97186.59
2022-09-28T21:06:33.063Z,97180.50
2022-09-28T21:08:59.870Z,97190.31
2022-09-28T21:11:28.084Z,97178.66
2022-09-28T21:13:56.631Z,97165.28
2022-09-28T21:16:23.390Z,97161.72
2022-09-28T21:18:50.176Z,97190.03
2022-09-28T21:21:18.528Z,97190.03
2022-09-28T21:23:45.601Z,97193.06
2022-09-28T21:26:14.345Z,97203.25
2022-09-28T21:28:41.485Z,97200.53
2022-09-28T21:31:10.235Z,97203.44
2022-09-28T21:33:37.279Z,97206.31
2022-09-28T21:36:05.596Z,97215.44
2022-09-28T21:38:32.500Z,97226.28
2022-09-28T21:40:59.533Z,97215.78
2022-09-28T21:43:27.423Z,97210.59
2022-09-28T21:45:54.769Z,97216.84
2022-09-28T21:48:22.564Z,97210.75
2022-09-28T21:50:56.975Z,97225.13
2022-09-28T21:53:29.043Z,97223.59
2022-09-28T21:55:57.973Z,97227.34
2022-09-28T21:58:26.276Z,97233.78
2022-09-28T22:01:07.626Z,97233.09
2022-09-28T22:03:35.634Z,97231.59
2022-09-28T22:06:03.314Z,97238.53
2022-09-28T22:08:30.180Z,97244.63
2022-09-28T22:11:11.718Z,97246.16
2022-09-28T22:13:44.683Z,97248.03
2022-09-28T22:16:12.131Z,97244.63
2022-09-28T22:18:39.022Z,97233.31
2022-09-28T22:21:08.346Z,97237.72
2022-09-28T22:23:36.064Z,97243.97
2022-09-28T22:26:12.978Z,97244.13
2022-09-28T22:28:40.322Z,97238.06
2022-09-28T22:31:07.139Z,97240.09
2022-09-28T22:33:35.103Z,97241.28
2022-09-28T22:36:02.202Z,97251.09
2022-09-28T22:38:31.870Z,97245.03
2022-09-28T22:40:58.794Z,97249.41
2022-09-28T22:43:26.333Z,97247.03
2022-09-28T22:46:09.000Z,97241.63
2022-09-28T22:48:36.055Z,97244.50
2022-09-28T22:51:03.294Z,97241.97
2022-09-28T22:53:30.241Z,97254.66
2022-09-28T22:55:57.680Z,97251.13
2022-09-28T22:58:24.660Z,97240.47
2022-09-28T23:00:51.417Z,97246.88
2022-09-28T23:03:18.454Z,97244.34
2022-09-28T23:05:54.840Z,97247.94
2022-09-28T23:08:22.132Z,97247.06
2022-09-28T23:10:49.156Z,97245.75
2022-09-28T23:13:16.060Z,97266.00
2022-09-28T23:15:43.182Z,97269.91
2022-09-28T23:18:10.171Z,97282.78
2022-09-28T23:20:36.987Z,97286.66
2022-09-28T23:23:04.004Z,97282.25
2022-09-28T23:25:31.072Z,97269.75
2022-09-28T23:27:57.863Z,97271.63
2022-09-28T23:30:24.994Z,97287.88
2022-09-28T23:32:53.197Z,97292.41
2022-09-28T23:35:20.152Z,97284.31
2022-09-28T23:37:50.721Z,97271.09
2022-09-28T23:40:17.678Z,97280.09
2022-09-28T23:42:44.491Z,97271.47
2022-09-28T23:45:11.570Z,97283.31
2022-09-28T23:47:38.593Z,97266.25
2022-09-28T23:50:05.991Z,97268.44
2022-09-28T23:52:33.302Z,97268.44
2022-09-28T23:55:00.093Z,97259.81
2022-09-28T23:57:26.939Z,97267.25
2022-09-28T23:59:53.982Z,97274.53
